createdAt,value
2019-02-10T00:00:40.386Z,13.60
2019-02-10T00:03:20.698Z,9.78
2019-02-10T00:05:57.726Z,10.15
2019-02-10T00:08:36.362Z,7.62
2019-02-10T00:11:12.546Z,12.35
2019-02-10T00:13:50.689Z,7.20
2019-02-10T00:16:28.190Z,16.27
2019-02-10T00:19:08.824Z,9.88
2019-02-10T00:21:53.380Z,15.43
2019-02-10T00:24:34.720Z,11.43
2019-02-10T00:27:17.374Z,11.43
2019-02-10T00:29:57.118Z,9.70
2019-02-10T00:32:39.832Z,6.37
2019-02-10T00:35:19.841Z,19.85
2019-02-10T00:38:02.011Z,15.05
2019-02-10T00:40:40.771Z,10.88
2019-02-10T00:43:20.247Z,8.78
2019-02-10T00:45:59.866Z,18.00
2019-02-10T00:48:41.268Z,11.97
2019-02-10T00:51:24.671Z,9.88
2019-02-10T00:54:07.776Z,12.58
2019-02-10T00:56:53.403Z,11.93
2019-02-10T00:59:34.707Z,12.70
2019-02-10T01:02:16.403Z,14.03
2019-02-10T01:04:55.299Z,12.00
2019-02-10T01:07:33.208Z,9.23
2019-02-10T01:10:18.474Z,9.18
2019-02-10T01:12:51.073Z,13.88
2019-02-10T01:15:35.077Z,14.87
2019-02-10T01:18:16.106Z,26.12
2019-02-10T01:20:56.863Z,9.53
2019-02-10T01:23:35.282Z,15.10
2019-02-10T01:26:13.355Z,10.30
2019-02-10T01:28:52.793Z,9.15
2019-02-10T01:31:28.441Z,11.03
2019-02-10T01:34:08.247Z,15.63
2019-02-10T01:36:49.680Z,10.53
2019-02-10T01:39:32.906Z,14.40
2019-02-10T01:42:08.313Z,7.47
2019-02-10T01:44:48.627Z,13.00
2019-02-10T01:47:23.314Z,11.35
2019-02-10T01:50:00.200Z,9.60
2019-02-10T01:52:38.990Z,7.08
2019-02-10T01:55:19.288Z,9.88
2019-02-10T01:57:55.855Z,9.73
2019-02-10T02:00:34.990Z,14.03
2019-02-10T02:03:15.053Z,6.75
2019-02-10T02:05:54.891Z,7.92
2019-02-10T02:08:37.295Z,7.53
2019-02-10T02:11:13.530Z,10.32
2019-02-10T02:13:53.805Z,15.05
2019-02-10T02:16:35.856Z,16.48
2019-02-10T02:19:12.031Z,8.45
2019-02-10T02:21:48.668Z,8.58
2019-02-10T02:24:25.827Z,11.65
2019-02-10T02:27:07.817Z,13.48
2019-02-10T02:29:49.903Z,11.22
2019-02-10T02:32:35.905Z,10.13
2019-02-10T02:35:15.450Z,10.13
2019-02-10T02:37:54.996Z,13.28
2019-02-10T02:40:31.759Z,11.63
2019-02-10T02:43:08.635Z,13.68
2019-02-10T02:45:46.804Z,9.88
2019-02-10T02:48:25.570Z,7.75
2019-02-10T02:51:06.744Z,13.22
2019-02-10T02:53:42.106Z,13.78
2019-02-10T02:56:20.333Z,13.13
2019-02-10T02:59:02.702Z,12.37
2019-02-10T03:01:39.535Z,11.73
2019-02-10T03:04:21.196Z,9.73
2019-02-10T03:07:02.209Z,8.63
2019-02-10T03:09:40.039Z,10.82
2019-02-10T03:12:20.011Z,11.03
2019-02-10T03:15:04.750Z,9.58
2019-02-10T03:17:46.211Z,10.03
2019-02-10T03:20:30.012Z,9.53
2019-02-10T03:23:09.645Z,9.25
2019-02-10T03:25:49.669Z,10.32
2019-02-10T03:28:29.658Z,15.90
2019-02-10T03:31:21.658Z,10.15
2019-02-10T03:34:00.645Z,8.43
2019-02-10T03:36:38.817Z,13.53
2019-02-10T03:39:19.845Z,9.20
2019-02-10T03:42:00.847Z,12.63
2019-02-10T03:44:45.348Z,12.60
2019-02-10T03:47:23.386Z,9.68
2019-02-10T03:50:07.321Z,9.25
2019-02-10T03:52:47.621Z,14.45
2019-02-10T03:55:29.352Z,12.63
2019-02-10T03:58:10.064Z,13.28
2019-02-10T04:00:47.151Z,9.30
2019-02-10T04:03:27.181Z,8.93
2019-02-10T04:06:04.974Z,12.40
2019-02-10T04:08:47.455Z,11.73
2019-02-10T04:11:26.324Z,13.35
2019-02-10T04:14:04.534Z,9.10
2019-02-10T04:16:47.607Z,12.82
2019-02-10T04:19:26.127Z,13.78
2019-02-10T04:22:09.906Z,14.60
2019-02-10T04:24:47.695Z,8.80
2019-02-10T04:27:30.131Z,6.60
2019-02-10T04:30:09.919Z,9.88
2019-02-10T04:32:45.132Z,15.53
2019-02-10T04:35:24.727Z,9.43
2019-02-10T04:38:02.526Z,11.15
2019-02-10T04:40:45.055Z,9.93
2019-02-10T04:43:22.533Z,10.20
2019-02-10T04:46:05.237Z,9.63
2019-02-10T04:48:47.424Z,13.20
2019-02-10T04:51:23.067Z,15.13
2019-02-10T04:54:05.804Z,8.95
2019-02-10T04:56:43.913Z,11.95
2019-02-10T04:59:22.707Z,9.73
2019-02-10T05:02:00.774Z,13.72
2019-02-10T05:04:38.942Z,9.18
2019-02-10T05:07:14.533Z,8.93
2019-02-10T05:09:56.752Z,6.30
2019-02-10T05:12:33.300Z,11.78
2019-02-10T05:15:13.622Z,11.35
2019-02-10T05:17:53.474Z,9.10
2019-02-10T05:20:32.909Z,15.45
2019-02-10T05:23:14.048Z,14.38
2019-02-10T05:25:52.282Z,8.40
2019-02-10T05:28:30.451Z,9.48
2019-02-10T05:31:09.271Z,13.43
2019-02-10T05:33:48.093Z,15.23
2019-02-10T05:36:25.781Z,12.10
2019-02-10T05:39:01.838Z,9.15
2019-02-10T05:41:40.007Z,7.10
2019-02-10T05:44:17.324Z,7.53
2019-02-10T05:46:55.097Z,5.37
2019-02-10T05:49:36.525Z,6.05
2019-02-10T05:52:16.358Z,4.25
2019-02-10T05:54:55.285Z,7.30
2019-02-10T05:57:37.347Z,7.95
2019-02-10T06:00:24.304Z,5.92
2019-02-10T06:03:05.032Z,6.05
2019-02-10T06:05:44.568Z,6.95
2019-02-10T06:08:22.780Z,6.45
2019-02-10T06:11:01.701Z,7.15
2019-02-10T06:13:39.259Z,6.92
2019-02-10T06:16:17.492Z,6.20
2019-02-10T06:18:53.766Z,9.13
2019-02-10T06:21:34.094Z,7.90
2019-02-10T06:24:13.971Z,5.33
2019-02-10T06:26:52.282Z,6.08
2019-02-10T06:29:30.387Z,7.50
2019-02-10T06:32:09.928Z,12.85
2019-02-10T06:34:46.394Z,8.33
2019-02-10T06:37:21.914Z,9.30
2019-02-10T06:40:02.870Z,7.95
2019-02-10T06:42:39.790Z,9.18
2019-02-10T06:45:19.040Z,5.72
2019-02-10T06:48:00.972Z,8.08
2019-02-10T06:50:39.126Z,5.90
2019-02-10T06:53:22.249Z,3.95
2019-02-10T06:56:03.275Z,4.95
2019-02-10T06:58:39.376Z,5.50
2019-02-10T07:01:34.180Z,7.72
2019-02-10T07:04:21.705Z,6.03
2019-02-10T07:06:58.638Z,4.95
2019-02-10T07:09:37.408Z,4.15
2019-02-10T07:12:53.095Z,4.25
2019-02-10T07:16:05.877Z,6.03
2019-02-10T07:19:18.118Z,5.83
2019-02-10T07:22:01.512Z,3.58
2019-02-10T07:24:47.411Z,5.25
2019-02-10T07:27:27.684Z,6.60
2019-02-10T07:30:16.930Z,6.55
2019-02-10T07:32:56.765Z,4.80
2019-02-10T07:36:01.949Z,3.05
2019-02-10T07:38:48.815Z,5.58
2019-02-10T07:42:06.184Z,3.33
2019-02-10T07:45:05.399Z,3.45
2019-02-10T07:47:47.786Z,2.47
2019-02-10T07:50:46.291Z,5.10
2019-02-10T07:53:29.092Z,2.62
2019-02-10T07:56:19.896Z,4.17
2019-02-10T07:59:25.548Z,1.62
2019-02-10T08:02:27.013Z,2.67
2019-02-10T08:05:36.724Z,2.20
2019-02-10T08:08:37.324Z,1.98
2019-02-10T08:11:30.616Z,7.05
2019-02-10T08:14:21.550Z,4.17
2019-02-10T08:17:37.748Z,2.98
2019-02-10T08:20:35.645Z,3.15
2019-02-10T08:23:30.189Z,3.15
2019-02-10T08:26:32.976Z,5.08
2019-02-10T08:29:37.750Z,2.72
2019-02-10T08:32:32.726Z,2.12
2019-02-10T08:35:31.030Z,2.72
2019-02-10T08:38:36.305Z,1.50
2019-02-10T08:41:31.044Z,2.45
2019-02-10T08:44:32.635Z,2.80
2019-02-10T08:47:25.042Z,3.67
2019-02-10T08:50:29.712Z,2.27
2019-02-10T08:53:14.124Z,2.60
2019-02-10T08:55:54.249Z,3.35
2019-02-10T08:58:34.039Z,1.77
2019-02-10T09:01:13.544Z,3.25
2019-02-10T09:03:53.398Z,1.27
2019-02-10T09:06:39.093Z,1.87
2019-02-10T09:09:24.065Z,3.05
2019-02-10T09:12:03.190Z,2.30
2019-02-10T09:14:42.144Z,2.60
2019-02-10T09:17:21.762Z,3.02
2019-02-10T09:20:06.918Z,2.00
2019-02-10T09:22:50.828Z,4.12
2019-02-10T09:25:32.518Z,2.90
2019-02-10T09:28:14.148Z,4.05
2019-02-10T09:30:53.020Z,2.65
2019-02-10T09:33:31.441Z,4.40
2019-02-10T09:36:10.118Z,3.85
2019-02-10T09:38:52.822Z,2.35
2019-02-10T09:41:37.867Z,9.58
2019-02-10T09:44:21.832Z,2.60
2019-02-10T09:47:10.612Z,2.30
2019-02-10T09:49:50.527Z,5.60
2019-02-10T09:52:30.828Z,5.42
2019-02-10T09:55:11.809Z,5.03
2019-02-10T09:57:50.057Z,2.85
2019-02-10T10:00:32.431Z,2.10
2019-02-10T10:03:08.948Z,2.65
2019-02-10T10:05:47.428Z,5.65
2019-02-10T10:08:29.861Z,5.30
2019-02-10T10:11:11.205Z,14.35
2019-02-10T10:13:56.735Z,6.62
2019-02-10T10:16:40.276Z,4.85
2019-02-10T10:19:19.038Z,4.75
2019-02-10T10:21:57.194Z,5.67
2019-02-10T10:24:36.331Z,2.10
2019-02-10T10:27:17.567Z,3.52
2019-02-10T10:29:59.271Z,2.92
2019-02-10T10:32:40.239Z,6.45
2019-02-10T10:35:22.668Z,6.10
2019-02-10T10:38:07.779Z,4.22
2019-02-10T10:40:46.466Z,4.08
2019-02-10T10:43:24.271Z,5.45
2019-02-10T10:46:10.173Z,6.05
2019-02-10T10:48:51.231Z,10.18
2019-02-10T10:51:37.114Z,8.50
2019-02-10T10:54:21.877Z,5.53
2019-02-10T10:57:04.284Z,8.40
2019-02-10T11:02:44.877Z,6.47
2019-02-10T11:05:24.449Z,3.70
2019-02-10T11:08:04.308Z,2.92
2019-02-10T11:10:46.967Z,3.15
2019-02-10T11:13:26.711Z,5.10
2019-02-10T11:16:09.836Z,1.95
2019-02-10T11:18:48.753Z,4.20
2019-02-10T11:21:31.882Z,2.30
2019-02-10T11:24:12.182Z,3.77
2019-02-10T11:26:52.192Z,2.08
2019-02-10T11:29:33.075Z,4.53
2019-02-10T11:32:19.358Z,3.58
2019-02-10T11:35:02.956Z,1.80
2019-02-10T11:37:40.282Z,3.83
2019-02-10T11:40:17.278Z,2.98
2019-02-10T11:42:55.803Z,3.12
2019-02-10T11:45:35.258Z,3.25
2019-02-10T11:48:14.889Z,2.30
2019-02-10T11:50:55.244Z,4.10
2019-02-10T11:53:35.490Z,2.25
2019-02-10T11:56:16.492Z,3.83
2019-02-10T11:58:55.393Z,3.22
2019-02-10T12:01:33.564Z,1.92
2019-02-10T12:04:14.562Z,5.85
2019-02-10T12:06:53.478Z,2.85
2019-02-10T12:09:33.095Z,2.22
2019-02-10T12:12:12.078Z,3.40
2019-02-10T12:14:59.247Z,2.17
2019-02-10T12:17:38.197Z,2.30
2019-02-10T12:20:21.579Z,6.25
2019-02-10T12:22:57.370Z,3.83
2019-02-10T12:25:37.000Z,1.70
2019-02-10T12:28:23.572Z,4.83
2019-02-10T12:31:05.825Z,2.75
2019-02-10T12:33:43.470Z,1.90
2019-02-10T12:36:26.540Z,3.20
2019-02-10T12:39:06.908Z,3.00
2019-02-10T12:41:45.804Z,2.67
2019-02-10T12:44:23.559Z,2.62
2019-02-10T12:47:03.606Z,3.33
2019-02-10T12:49:45.278Z,3.33
2019-02-10T12:52:29.779Z,1.92
2019-02-10T12:55:14.987Z,1.60
2019-02-10T12:57:53.151Z,2.33
2019-02-10T13:00:34.682Z,1.87
2019-02-10T13:03:17.283Z,3.00
2019-02-10T13:06:01.300Z,2.10
2019-02-10T13:08:40.648Z,1.75
2019-02-10T13:11:20.285Z,2.37
2019-02-10T13:14:01.314Z,1.72
2019-02-10T13:16:40.887Z,2.42
2019-02-10T13:19:30.560Z,2.22
2019-02-10T13:22:10.616Z,4.95
2019-02-10T13:24:52.348Z,1.90
2019-02-10T13:27:34.718Z,3.00
2019-02-10T13:30:15.722Z,1.92
2019-02-10T13:32:57.391Z,3.92
2019-02-10T13:35:39.723Z,2.25
2019-02-10T13:38:21.388Z,1.67
2019-02-10T13:41:01.121Z,1.77
2019-02-10T13:43:42.823Z,2.22
2019-02-10T13:46:24.964Z,1.40
2019-02-10T13:49:04.894Z,2.37
2019-02-10T13:51:44.428Z,1.00
2019-02-10T13:54:21.897Z,2.55
2019-02-10T13:57:05.726Z,0.80
2019-02-10T13:59:46.741Z,1.50
2019-02-10T14:02:29.128Z,0.90
2019-02-10T14:05:11.532Z,1.00
2019-02-10T14:07:57.041Z,1.10
2019-02-10T14:10:37.945Z,0.85
2019-02-10T14:13:18.732Z,1.82
2019-02-10T14:16:01.133Z,1.00
2019-02-10T14:18:42.919Z,1.90
2019-02-10T14:21:30.834Z,0.80
2019-02-10T14:24:14.636Z,0.90
2019-02-10T14:26:54.903Z,1.00
2019-02-10T14:29:35.671Z,1.40
2019-02-10T14:32:15.536Z,0.80
2019-02-10T14:34:57.319Z,0.60
2019-02-10T14:37:42.413Z,1.02
2019-02-10T14:40:33.098Z,0.80
2019-02-10T14:43:06.540Z,1.70
2019-02-10T14:45:48.993Z,0.80
2019-02-10T14:48:32.741Z,0.65
2019-02-10T14:51:15.142Z,1.00
2019-02-10T14:54:03.844Z,0.70
2019-02-10T14:56:47.643Z,4.70
2019-02-10T14:59:27.997Z,0.70
2019-02-10T15:02:13.563Z,2.80
2019-02-10T15:04:57.614Z,0.80
2019-02-10T15:07:37.964Z,1.35
2019-02-10T15:10:26.647Z,1.30
2019-02-10T15:13:05.548Z,1.45
2019-02-10T15:15:49.662Z,1.00
2019-02-10T15:18:30.349Z,0.82
2019-02-10T15:21:08.055Z,2.00
2019-02-10T15:23:49.028Z,0.78
2019-02-10T15:26:27.538Z,0.69
2019-02-10T15:29:05.952Z,1.07
2019-02-10T15:31:44.152Z,1.70
2019-02-10T15:34:22.783Z,1.10
2019-02-10T15:37:01.954Z,1.87
2019-02-10T15:39:39.840Z,0.80
2019-02-10T15:42:21.825Z,0.80
2019-02-10T15:45:03.400Z,0.90
2019-02-10T15:47:38.925Z,0.80
2019-02-10T15:50:21.359Z,1.30
2019-02-10T15:52:58.830Z,1.72
2019-02-10T15:55:35.658Z,0.95
2019-02-10T15:58:14.544Z,0.80
2019-02-10T16:00:56.745Z,0.60
2019-02-10T16:03:34.429Z,0.65
2019-02-10T16:06:13.469Z,0.70
2019-02-10T16:08:58.535Z,1.32
2019-02-10T16:11:35.027Z,1.30
2019-02-10T16:14:16.335Z,0.60
2019-02-10T16:16:55.233Z,1.00
2019-02-10T16:19:34.168Z,1.15
2019-02-10T16:22:14.466Z,0.93
2019-02-10T16:24:55.012Z,0.65
2019-02-10T16:27:33.903Z,1.30
2019-02-10T16:30:14.682Z,0.90
2019-02-10T16:35:33.746Z,0.80
2019-02-10T16:38:16.271Z,0.80
2019-02-10T16:40:53.072Z,1.05
2019-02-10T16:43:32.107Z,0.75
2019-02-10T16:46:08.207Z,1.20
2019-02-10T16:48:53.973Z,1.00
2019-02-10T16:51:32.980Z,0.75
2019-02-10T16:54:12.003Z,1.20
2019-02-10T16:56:46.073Z,4.42
2019-02-10T16:59:23.277Z,1.22
2019-02-10T17:02:02.182Z,0.80
2019-02-10T17:04:44.393Z,0.80
2019-02-10T17:07:22.779Z,1.10
2019-02-10T17:10:02.379Z,1.02
2019-02-10T17:12:48.258Z,2.70
2019-02-10T17:15:30.652Z,1.70
2019-02-10T17:18:07.724Z,1.32
2019-02-10T17:20:48.170Z,2.30
2019-02-10T17:23:31.075Z,1.27
2019-02-10T17:26:06.952Z,2.27
2019-02-10T17:28:47.284Z,1.42
2019-02-10T17:31:27.553Z,1.05
2019-02-10T17:34:07.777Z,1.60
2019-02-10T17:36:47.338Z,0.85
2019-02-10T17:39:27.807Z,1.90
2019-02-10T17:42:06.688Z,0.70
2019-02-10T17:44:46.289Z,0.60
2019-02-10T17:47:24.573Z,2.00
2019-02-10T17:50:08.990Z,0.70
2019-02-10T17:52:48.761Z,0.70
2019-02-10T17:55:30.959Z,0.60
2019-02-10T17:58:13.336Z,2.20
2019-02-10T18:00:52.457Z,0.70
2019-02-10T18:03:29.252Z,1.20
2019-02-10T18:06:10.762Z,1.92
2019-02-10T18:09:02.288Z,2.10
2019-02-10T18:11:43.964Z,1.20
2019-02-10T18:14:21.022Z,1.02
2019-02-10T18:17:10.469Z,1.07
2019-02-10T18:19:50.180Z,1.32
2019-02-10T18:22:34.999Z,0.80
2019-02-10T18:25:15.200Z,2.05
2019-02-10T18:27:54.921Z,0.93
2019-02-10T18:30:42.709Z,2.17
2019-02-10T18:33:32.270Z,0.90
2019-02-10T18:36:16.804Z,1.02
2019-02-10T18:38:57.803Z,0.70
2019-02-10T18:41:55.572Z,1.77
2019-02-10T18:44:35.159Z,1.22
2019-02-10T18:47:16.906Z,1.20
2019-02-10T18:50:03.498Z,1.22
2019-02-10T18:52:58.271Z,0.90
2019-02-10T18:55:37.921Z,0.70
2019-02-10T18:58:22.580Z,1.90
2019-02-10T19:01:05.709Z,0.80
2019-02-10T19:04:06.715Z,1.05
2019-02-10T19:07:11.577Z,2.30
2019-02-10T19:09:56.283Z,1.35
2019-02-10T19:12:52.680Z,1.00
2019-02-10T19:18:49.281Z,0.90
2019-02-10T19:21:32.087Z,1.07
2019-02-10T19:24:27.116Z,1.20
2019-02-10T19:27:02.709Z,1.45
2019-02-10T19:29:42.121Z,0.70
2019-02-10T19:32:29.163Z,1.35
2019-02-10T19:35:07.618Z,0.80
2019-02-10T19:38:08.127Z,0.90
2019-02-10T19:41:03.966Z,1.50
2019-02-10T19:44:03.121Z,0.85
2019-02-10T19:46:46.651Z,0.98
2019-02-10T19:49:32.746Z,1.00
2019-02-10T19:52:21.378Z,1.42
2019-02-10T19:55:17.436Z,0.60
2019-02-10T19:58:00.293Z,2.60
2019-02-10T20:00:52.525Z,2.25
2019-02-10T20:03:40.422Z,0.90
2019-02-10T20:06:25.679Z,1.55
2019-02-10T20:09:25.603Z,0.80
2019-02-10T20:12:10.878Z,0.80
2019-02-10T20:14:53.929Z,1.37
2019-02-10T20:17:35.928Z,1.57
2019-02-10T20:20:18.730Z,0.95
2019-02-10T20:23:04.998Z,1.45
2019-02-10T20:25:58.204Z,1.30
2019-02-10T20:28:48.303Z,1.60
2019-02-10T20:31:44.799Z,1.15
2019-02-10T20:34:32.626Z,1.12
2019-02-10T20:37:11.588Z,2.30
2019-02-10T20:40:02.046Z,0.70
2019-02-10T20:42:43.663Z,1.00
2019-02-10T20:45:35.695Z,0.75
2019-02-10T20:48:21.509Z,0.70
2019-02-10T20:51:05.307Z,1.50
2019-02-10T20:53:45.610Z,0.88
2019-02-10T20:56:27.651Z,1.35
2019-02-10T20:59:15.341Z,1.30
2019-02-10T21:02:16.072Z,0.90
2019-02-10T21:05:00.362Z,1.15
2019-02-10T21:07:57.543Z,2.45
2019-02-10T21:10:50.487Z,1.00
2019-02-10T21:13:37.748Z,1.85
2019-02-10T21:16:21.975Z,1.77
2019-02-10T21:19:23.824Z,1.10
2019-02-10T21:22:18.546Z,2.00
2019-02-10T21:25:03.291Z,0.80
2019-02-10T21:27:56.527Z,1.80
2019-02-10T21:30:53.982Z,0.70
2019-02-10T21:33:49.469Z,0.85
2019-02-10T21:36:31.820Z,0.80
2019-02-10T21:39:11.748Z,1.17
2019-02-10T21:42:01.136Z,1.67
2019-02-10T21:44:57.921Z,2.37
2019-02-10T21:47:44.526Z,0.68
2019-02-10T21:50:28.819Z,1.15
2019-02-10T21:53:11.410Z,1.50
2019-02-10T21:55:53.840Z,0.70
2019-02-10T21:58:34.406Z,1.27
2019-02-10T22:01:11.676Z,3.72
2019-02-10T22:03:50.020Z,2.50
2019-02-10T22:06:29.373Z,0.98
2019-02-10T22:09:11.159Z,0.93
2019-02-10T22:11:51.432Z,0.72
2019-02-10T22:14:34.806Z,1.55
2019-02-10T22:17:13.240Z,0.70
2019-02-10T22:19:53.723Z,0.80
2019-02-10T22:22:39.662Z,0.60
2019-02-10T22:25:22.034Z,1.27
2019-02-10T22:27:59.262Z,0.50
2019-02-10T22:30:43.777Z,0.88
2019-02-10T22:33:27.135Z,0.60
2019-02-10T22:36:09.975Z,1.00
2019-02-10T22:38:51.116Z,0.80
2019-02-10T22:41:34.333Z,0.90
2019-02-10T22:44:11.869Z,0.72
2019-02-10T22:46:52.803Z,0.60
2019-02-10T22:49:34.189Z,0.80
2019-02-10T22:52:18.260Z,0.60
2019-02-10T22:55:07.026Z,0.90
2019-02-10T22:57:46.715Z,0.60
2019-02-10T23:00:39.158Z,0.60
2019-02-10T23:03:18.594Z,1.70
2019-02-10T23:05:55.886Z,0.70
2019-02-10T23:08:35.676Z,0.88
2019-02-10T23:11:17.971Z,1.17
2019-02-10T23:13:57.542Z,0.65
2019-02-10T23:16:34.319Z,0.70
2019-02-10T23:19:15.054Z,0.60
2019-02-10T23:21:52.145Z,0.70
2019-02-10T23:24:32.553Z,0.95
2019-02-10T23:27:16.227Z,0.75
2019-02-10T23:29:53.891Z,1.12
2019-02-10T23:32:33.347Z,2.92
2019-02-10T23:35:15.492Z,0.50
2019-02-10T23:37:57.190Z,0.60
2019-02-10T23:40:36.352Z,0.60
2019-02-10T23:43:14.621Z,0.90
2019-02-10T23:45:56.096Z,0.60
2019-02-10T23:48:38.604Z,0.60
2019-02-10T23:51:17.939Z,0.98
2019-02-10T23:53:56.480Z,0.80
2019-02-10T23:56:36.304Z,0.60
2019-02-10T23:59:15.659Z,0.88
